Terminal Aerodrome Forecast
Issued by NWS Lubbock, TX

Home | Current Version | Previous Version | Text Only | Print | Product List | Glossary On
Versions: 1 2 3 4 5 6 7 8 9 10 11 12 13 14 15
000
FTUS44 KLUB 271500 AAA
TAFLBB
TAF AMD
KLBB 271514Z 2715/2812 02010KT P6SM -SHSN BKN030 OVC050
     FM271800 01010KT P6SM SCT050 BKN180
     FM280500 VRB06KT P6SM FEW100=

USA.gov is the U.S. government's official web portal to all federal, state and local government web resources and services.